KMDH Weather | Aviation | SIU

Home
Southern Illinois University

CONTACT

SIU.EDU

Aviation - Weather

College of Applied Sciences and Arts

KMDH Weather

NOTICE: Although all weather products are taken from the National Weather Service, this data should be used only as a supplement to a formal weather briefing.

Last Updated: Saturday, March 25th, 2017, 6:28 am
Information on this page is updated every 5 minutes.


METARS

KMDH 251052Z AUTO 16011KT 10SM BKN100 13/12 A2991 RMK AO2 SLP126 T01330122

KMDH 250952Z AUTO 20008KT 10SM SCT080 OVC100 14/13 A2992 RMK AO2 PK WND

KMDH 250859Z AUTO 25016G27KT 10SM -RA FEW014 BKN044 OVC065 14/13 A2990 RMK AO2

KMDH 250852Z AUTO 24017G28KT 6SM -RA BR FEW014 BKN041 OVC080 15/14 A2990 RMK AO2

KMDH 250850Z AUTO 24021G34KT 4SM -RA BR FEW014 BKN041 OVC085 15/14 A2990 RMK AO2

KMWA 251115Z AUTO 15008KT 10SM OVC100 14/14 A2995 RMK AO2

KMWA 251055Z AUTO 15008KT 10SM OVC100 14/14 A2994 RMK AO2

KMWA 251035Z AUTO 16004KT 10SM OVC100 14/13 A2994 RMK AO2

KMWA 251015Z AUTO 19004KT 10SM OVC090 14/14 A2993 RMK AO2

KMWA 250955Z AUTO 20005KT 10SM SCT055 OVC090 15/14 A2994 RMK AO2

KMWA 250935Z AUTO 22007KT 10SM BKN060 OVC070 15/14 A2994 RMK AO2

KMWA 250915Z AUTO 24009G22KT 10SM -RA SCT027 BKN040 OVC075 15/14 A2992 RMK AO2

KMWA 250855Z AUTO 17018G22KT 10SM -RA SCT035 BKN060 OVC100 20/14 A2988 RMK AO2

KMWA 250835Z AUTO 16012G22KT 10SM SCT075 BKN090 BKN110 20/14 A2988 RMK AO2

KCGI 251053Z AUTO 16012KT 9SM -RA OVC080 13/11 A2994 RMK AO2 SLP136 P0003

KCGI 250953Z AUTO 14009KT 10SM -RA OVC100 13/11 A2993 RMK AO2 RAE19B39 SLP132

KCGI 250853Z AUTO 24007KT 10SM -RA BKN080 OVC095 13/12 A2993 RMK AO2 PK WND

KSAR 251115Z AUTO 16009KT 10SM SCT120 13/12 A2988 RMK AO2 T01300117

KSAR 251055Z AUTO 16009G14KT 10SM SCT090 BKN120 13/13 A2988 RMK AO2 T01320125

KSAR 251035Z AUTO 14008KT 10SM SCT080 OVC110 14/13 A2985 RMK AO2 T01350131

KSAR 251015Z AUTO 14005KT 10SM -DZ OVC110 14/13 A2987 RMK AO2 T01370132

KSAR 250955Z AUTO 20004KT 10SM -DZ SCT060 OVC110 14/13 A2988 RMK AO2 P0003

KSAR 250935Z AUTO 22005KT 10SM DZ SCT060 BKN075 OVC110 14/13 A2989 RMK AO2 P0003

KSAR 250915Z AUTO 24009KT 10SM -RA SCT023 BKN060 OVC085 14/14 A2989 RMK AO2

KSAR 250855Z AUTO 25009KT 7SM +RA SCT012 BKN022 OVC029 15/14 A2989 RMK AO2 P0006

KSAR 250835Z AUTO 22009KT 10SM RA SCT012 BKN022 OVC035 17/15 A2986 RMK AO2

KFAM 251056Z AUTO 17009KT 10SM CLR 12/11 A2988 RMK AO2 SLP114 T01170111

KFAM 250956Z AUTO 17008KT 10SM FEW095 12/11 A2985 RMK AO2 RAE50 SLP104 P0004

KFAM 250856Z AUTO 13006KT 10SM RA OVC090 12/12 A2987 RMK AO2 SLP110 P0007 60060

KMVN 251056Z AUTO 17006KT 10SM BKN100 15/13 A2990 RMK AO2 RAE01 SLP123 P0000

KMVN 251005Z AUTO 22012KT 10SM SCT029 BKN035 OVC070 16/14 A2991 RMK AO2 RAE01

KMVN 250856Z AUTO 15010G16KT 10SM FEW095 18/13 A2987 RMK AO2 SLP112 T01830128

KHSB 251115Z AUTO 16010KT 10SM -RA OVC075 15/13 A2997 RMK AO2 T01450127

KCIR 251115Z AUTO 13010KT 10SM -DZ SCT031 SCT055 OVC085 13/12 A2997 RMK AO2

KPAH 251053Z 14008KT 9SM -RA OVC075 13/12 A2998 RMK AO2 SLP150 P0006 T01330117

KPOF 251120Z AUTO 12014G22KT 10SM SCT007 BKN080 OVC095 13/12 A2987 RMK AO2 RAE08

KFAM 251056Z AUTO 17009KT 10SM CLR 12/11 A2988 RMK AO2 SLP114 T01170111

KBLV 251058Z 16011KT 10SM BKN080 OVC170 14/14 A2983 RMK AO2A DZB0958E12RAB36E46

KSUS 251125Z 17004KT 10SM SCT013 BKN150 14/12 A2982 RMK AO2 T01390122

KCPS 251119Z AUTO 18005KT 10SM SCT009 14/12 A2983 RMK AO2 T01390122

KSTL 251123Z 17010KT 10SM SCT010 BKN080 15/13 A2983 RMK AO2 T01500128

KTBN 251058Z AUTO 14009KT 10SM BKN045 BKN050 11/10 A2979 RMK AO2 SLP085

KVIH 251053Z AUTO 16009KT 10SM SCT085 11/10 A2979 RMK AO2 SLP082 T01110100 $

KENL 251115Z AUTO 16007KT 10SM SCT100 OVC120 15/13 A2986 RMK AO2 T01530132

KMTO 251053Z AUTO 15013G23KT 10SM CLR 17/13 A2990 RMK AO2 SLP120 T01720128

KFWC 251115Z AUTO 18004KT 10SM BKN095 16/13 A2992 RMK AO1 T01590132

KCUL 251115Z AUTO 18012KT 10SM BKN070 BKN090 16/13 A2996 RMK AO2 T01600129

KEVV 251054Z 16010G15KT 10SM SCT060 BKN100 18/11 A3000 RMK AO2 SLP154 T01830111

KOWB 251056Z 16013KT 10SM BKN075 17/12 A3001 RMK AO2 SLP172 T01720117

KEHR 251115Z 19011G17KT 10SM FEW030 SCT041 BKN047 16/11 A3000 RMK AO1

KCEY 251055Z AUTO 26005KT 10SM OVC040 14/13 A3002 RMK AO1

KHOP 251058Z AUTO 17010G18KT 10SM BKN160 BKN180 19/12 A3001 RMK AO2 SLP160

KMKL 251053Z AUTO 14009G15KT 10SM BKN050 OVC100 20/11 A2997 RMK AO2 SLP143

KDYR 251056Z AUTO 09006KT 9SM -RA FEW024 BKN036 OVC046 13/13 A2997 RMK AO2

KARG 251115Z AUTO 20004KT 10SM BKN010 OVC065 14/11 A2989 RMK AO1

KJBR 251101Z AUTO 11013KT 10SM BKN006 BKN085 13/13 A2987 RMK AO2 T01330128

KUNO 251112Z AUTO 13010G15KT 10SM OVC006 12/11 A2983 RMK AO2 CIG 005V009

KALN 251115Z AUTO 18005KT 10SM OVC080 13/13 A2983 RMK AO2 T01330128

KALN 251115Z AUTO 18005KT 10SM OVC080 13/13 A2983 RMK AO2 T01330128

KCOU 251054Z AUTO 15006KT 10SM BKN095 12/12 A2979 RMK AO2 SLP083 T01220117

KSPI 251052Z 07010KT 9SM OVC029 16/14 A2983 RMK AO2 RAE03B25E51 SLP098 P0000

KAJG 251115Z AUTO 16014G19KT 10SM CLR 18/12 A2996 RMK AO2 LTG DSNT N T01760115

KM30 251115Z AUTO 12005KT 10SM RA OVC090 13/12 A2999 RMK AO2 T01300123

KDEC 251054Z 13013KT 10SM BKN100 16/12 A2987 RMK AO2 SLP112 T01610117 $

KIJX 251115Z AUTO 06011KT 5SM BR SCT036 SCT095 14/14 A2978 RMK AO2 LTG DSNT NE


TAFS

KEVV 250958Z 2510/2606 15006KT P6SM SCT040 BKN120 WS020/19040KT

        TEMPO 2510/2512 3SM SHRA BR BKN035

        FM251200 16010KT P6SM BKN035 WS020/19040KT

        FM251500 17013G21KT P6SM -SHRA BKN035

        FM251700 17013G21KT P6SM -SHRA BKN040

        FM260300 15006KT P6SM BKN050

KCGI 250520Z 2506/2606 15013KT P6SM VCSH FEW050 BKN150 WS020/18050KT

        FM250700 17015G24KT 6SM -SHRA VCTS BKN040CB

        TEMPO 2507/2511 3SM SHRA BR BKN025

        FM251100 17012G19KT P6SM -SHRA BKN025

        FM251600 17015G24KT P6SM VCSH BKN035

        FM252300 19006KT P6SM BKN050

KPAH 250852Z 2509/2606 17013G21KT P6SM -SHRA BKN040

        TEMPO 2509/2510 26020G35KT 3SM SHRA

        FM251400 17013G21KT P6SM -SHRA BKN030

        FM251700 17014G22KT P6SM -SHRA BKN040

        FM260100 17005KT P6SM BKN050

KSPI 251102Z 2511/2606 07010KT P6SM VCSH OVC025

        FM251500 16014G22KT P6SM VCSH OVC045

        FM252100 14014KT P6SM OVC050

        FM260200 14008KT P6SM BKN040

KSTL 251120Z 2512/2618 16009KT P6SM OVC070

        TEMPO 2512/2514 BKN009

        FM251700 15007KT 6SM -SHRA VCTS BKN040CB

        FM252100 15008KT P6SM BKN060

        FM260900 22007KT P6SM OVC020

KDEC 251103Z 2511/2606 13013KT P6SM VCSH BKN100

        FM251600 16014G22KT P6SM VCSH OVC045

        FM252200 14014KT P6SM OVC050

        FM260200 14008KT P6SM BKN035

KOWB 251000Z 2510/2606 16008KT P6SM SCT040 BKN120 WS020/19040KT

        TEMPO 2511/2513 3SM SHRA BR BKN035

        FM251300 16012G19KT P6SM BKN035 WS020/19040KT

        FM251500 18015G23KT P6SM -SHRA BKN035

        FM251800 18016G25KT P6SM -SHRA BKN040

        FM260000 16009KT P6SM -SHRA BKN045

KSUS 251120Z 2512/2612 18008KT P6SM BKN090

        TEMPO 2512/2514 BKN009

        FM251700 15007KT 6SM -SHRA VCTS BKN040CB

        FM252100 15007KT P6SM BKN060

        FM260700 22006KT P6SM VCSH OVC020

TAF AMD KBLV 250905Z 2509/2614 16009KT 9000 -SHRA SCT015 OVC020 QNH2982INS

        BECMG 2514/2515 16020G30KT 9999 NSW SCT015 BKN030 510002 QNH2981INS

        BECMG 2519/2520 16020G25KT 8000 -SHRA BKN020 OVC030 QNH2976INS

        TEMPO 2521/2524 15015G20KT 4800 -TSRA OVC015CB

        BECMG 2605/2606 22012KT 9999 NSW BKN010 OVC030 QNH2986INS TX20/2519Z TN13/2512Z


Winds Aloft

VALID 251200Z FOR USE 0800-1500Z. TEMPS NEG ABV 24000

FT 3000 6000 9000 12000 18000 24000 30000 34000 39000
CGI19532151+082139+022040-031955-152056-27194942195954225752
EVV20522133+102136+032040-032149-152158-27214543214553235355
SPI18471840+081938+022037-021931-151933-27194243215755244957
STL20372131+072026+021927-021836-151843-27184843206154235056



Pilot Reports

EVV UA /OV PXV280030/TM 1052/FL330/TP A321/TB LGT-MOD CHOP
DYR UA /OV DYR/TM 1105/FL160/TP MD11/TB OCNL MOD 070-160/RM CORRECTED/ZME
EVV UA /OV CCT/TM 1105/FL300/TP J328/TB LGT CHOP
EVV UA /OV PXV/TM 1109/FL320/TP A320/TB LGT CHOP



Area Forecast

000

FAUS43 KKCI 250945

FA3W

CHIC FA 250945

SYNOPSIS AND VFR CLDS/WX

SYNOPSIS VALID UNTIL 260400

CLDS/WX VALID UNTIL 252200...OTLK VALID 252200-260400

ND SD NE KS MN IA MO WI LM LS MI LH IL IN KY

.

SEE AIRMET SIERRA FOR IFR CONDS AND MTN OBSCN.

TS IMPLY SEV OR GTR TURB SEV ICE LLWS AND IFR CONDS.

NON MSL HGTS DENOTED BY AGL OR CIG.

.

SYNOPSIS...NONE.

.

ND

W...BKN CI. 18Z SCT090 BKN120 TOP FL220. OTLK..VFR SHRA.

CNTRL...CIG BKN010 TOP 050. VIS 3-5SM BR. BECMG 1518 SCT100.

OTLK..VFR.

E...FEW015-025. 12Z CIG BKN020. BECMG 1618 SCT100. OTLK..VFR.

.

SD

W HLF...SCT CI OR SKC. OTLK..VFR.

NERN QTR...OVC020-030 TOP 060. TIL 15Z OCNL VIS 3SM BR. BECMG

1417 SKC N HLF. BECMG 1619 SKC S HLF. OTLK..VFR.

SE QTR...OVC020-030 TOP 060. BECMG 1821 SCT030 W 1/3. OTLK..MVFR

CIG.

.

NE

W OF 15SE MCK-25N ANW...SKC OR SCT CI. TIL 16Z OCNL VIS 3-5SM BR

XTRM E SXNS. OTLK..VFR.

E OF 55SSW FSD-75S OBH...CIG OVC010 TOP FL270. SCT -SHRA S HLF

ENDG 17-19Z. OTLK..MVFR CIG N. IFR CIG S.

ELSW...CIG OVC-BKN010-015 TOP 060. TIL 17Z OCNL VIS 3-5SM BR.

BECMG 1821 AGL SCT015. OTLK..VFR BECMG 0003 MVFR CIG.

.

KS

W OF LBL-15SE MCK...SKC. TIL 14Z OCNL SCT120. OTLK..VFR.

RMNDR W HLF...CIG OVC010 TOP 060. BECMG 1821 AGL SCT015 W HLF

AREA. OTLK..MVFR CIG E HLF ENDG 00-02Z. OTRW VFR.

E HLF...CIG OVC010 TOP FL270. SCT -SHRA/ISOL -TSRA. CB TOP FL280.

BECMG 1720 CIG OVC025 TOP 060. OTLK..MVFR CIG BECMG 0104 VFR W

HLF AREA.

.

MN

NW QTR...SCT030 NW HLF. BKN030 TOP 060 SE HLF. 14Z BKN030 THRUT.

18Z SCT060. OTLK..VFR.

NERN QTR...OVC030 TOP 060. OTLK..MVFR CIG.

S HLF...BKN030 TOP 060 NW 1/3. CIG BKN010 OVC025 LYRD FL270 SE

2/3. BECMG 1720 ISOL -SHRA SE 2/3. OTLK..MVFR CIG NW 1/3. IFR CIG

SE 2/3.

.

IA

NW 1/3...OVC020-025 LYRD FL270. VIS 4SM BR THRUT PD. BECMG 1416

ISOL -SHRA. OTLK..IFR CIG BR.

SE 2/3...OVC020-025 TOP FL270. VIS 3-5SM BR. WDLY SCT -SHRA.

OTLK..IFR CIG SHRA BR.

.

MO

N 1/3...OVC015-020 TOP FL270. WDLY SCT -SHRA. BECMG 1517 CLD TOP

060. OCNL -DZ. OTLK..IFR CIG SHRA W. IFR CIG SHRA TSRA E.

S 2/3...

W-CNTRL...SCT030 SCT060 BKN090 TOP 120. ISOL -SHRA/-TSRA. CB

TOP FL300. BECMG 1416 SCT030 OVC060 TOP 160. WDLY SCT

-SHRA/-TSRA. CB TOP FL360. OTLK..MVFR CIG SHRA W. VFR TSRA E.

E...OVC080 LYRD FL280. SCT -SHRA/ISOL -TSRA. CB TOP FL260.

BECMG 1316 SCT030 BKN060 TOP 120. WDLY SCT -TSRA POSS SEV. CB

TOP FL380. OTLK..VFR TSRA.

.

WI LS UPR MI

S HLF WI...OVC020-025 TOP FL220. VIS 3-5SM BR THRUT PD. TIL 15Z

ISOL -SHRA E HLF AREA. BECMG 1921 SCT -SHRA. OTLK..IFR CIG SHRA.

NERN QTR WI/XTRM S UPR MI...OVC020-030 LYRD FL220. ISOL -SHRA WI

SXNS. OTLK..VFR BECMG 0104 MVFR CIG SHRA.

LS/KEWEENAW PENINSULA...SCT030 BKN050 TOP 060. BECMG 1720 SCT060.

OTLK..VFR.

RMNDR UPR MI/NW QTR WI...BKN030 OVC050 TOP 060. OTLK..MVFR CIG.

.

LM LWR MI LH

N 1/3...OVC030 TOP 060. BECMG 1517 SCT-BKN050. OTLK..MVFR CIG

BECMG 0002 MVFR CIG RA BR.

S 2/3...BKN045 TOP FL360 S OF 30E GIJ-25NE DXO. OVC020-030 TOP

FL360 ELSW. WDLY SCT -SHRA THRUT. 13Z OVC020-030 TOP FL360. VIS

3-5SM -RA BR. OTLK..IFR CIG RA TSRA BR.

.

IL

N HLF...BKN015-020 OVC060 TOP FL220. SCT -SHRA/ISOL -TSRA. CB TOP

FL260. BECMG 1719 SCT030 BKN060 S SXNS WITH ISOL -SHRA. OTLK..IFR

CIG SHRA N. VFR TSRA S.

S HLF...BKN030 OVC080 TOP FL220 W. BKN050 BKN080 LYRD FL220 E.

ISOL -SHRA S/W SXNS. BECMG 1316 BKN030 OVC050 THRUT. SCT -SHRA.

BECMG 1720 BKN-SCT040 TOP 120. SCT -TSRA/-SHRA. TS POSS SEV. CB

TOP FL380. OTLK..VFR SHRA TSRA.

.

IN

N 1/3...BKN060 TOP FL360. ISOL -SHRA. BECMG 1214 BKN030 OVC060.

VIS 3-5SM IN WDLY SCT -SHRA. OTLK..MVFR CIG SHRA.

S 2/3...SCT080 BKN CI. BECMG 1518 SCT050 BKN080. WDLY SCT -SHRA.

OTLK..VFR SHRA TSRA.

.

KY

W...BKN070 TOP 160. SCT -SHRA W. 13Z BKN030 BKN070 TOP 160 THRUT.

SCT -SHRA THRUT. BECMG 1921 WDLY SCT -TSRA POSS SEV. CB TOP

FL380. OTLK..VFR SHRA TSRA.

CNTRL-E...SCT CI. BECMG 1720 SCT-BKN070 TOP 160. OTLK..VFR SHRA

TSRA CNTRL. VFR E.

....



Significant Weather

WAUS43 KKCI 250958 AAA CHIT WA 250958 AMD AIRMET TANGO UPDT 2 FOR TURB AND LLWS VALID UNTIL 251500 AIRMET TURB...MO IL IN KY AR TN LA MS AL FROM 50ENE UIN TO 30NW AXC TO TTH TO 20WSW IIU TO 50SSE BNA TO 40ENE IGB TO 20NNW MCB TO 50ENE AEX TO 20NNE MEM TO 40NNW DYR TO 30N ARG TO 30SSE UIN TO 50ENE UIN MOD TURB BLW 100. CONDS CONTG BYD 15Z ENDG 15-18Z. OTLK VALID 1500-2100Z...TURB SD NE KS MN IA MO WI LM LS MI LH IL IN KY OK TX AR TN LA MS BOUNDED BY 70WNW SSM-SSM-YVV-DXO-FWA-40NNE AXC-40SE SQS-30SW MCB- 30S AEX-60SW GGG-40WSW TTT-40NW SPS-40N MMB-40ESE LBF-70SSE ABR- 60NNW RWF-70SE DLH-70WNW SSM MOD TURB BTN FL190 AND FL370. CONDS CONTG THRU 21Z.
WAUS43 KKCI 250845 CHIZ WA 250845 AIRMET ZULU UPDT 1 FOR ICE AND FRZLVL VALID UNTIL 251500 AIRMET ICE...IA MO WI LM MI LH IL IN KY FROM 70S SSM TO 30NW YVV TO 30NE ECK TO DXO TO FWA TO 20NE BVT TO 30SSW BVT TO 60WNW BNA TO 30S ARG TO 40W FAM TO 30SW IRK TO 20N IRK TO 40WNW BDF TO 40WSW DLL TO 70S SSM MOD ICE BTN FRZLVL AND FL200. FRZLVL SFC-100. CONDS CONTG BYD 15Z THRU 21Z. OTLK VALID 1500-2100Z...ICE NE KS MN IA MO WI LM MI LH IL IN KY BOUNDED BY 20WNW TVC-20SSW ASP-50SW YVV-DXO-FWA-20NE BVT-30SSW BVT-60W BNA-40E FAM-AXC-BDF-20S IOW-20W IRK-30S SGF-40SW OSW-40ESE ICT-SLN-50W PWE-30W FOD-20W ODI-20WNW TVC MOD ICE BTN FRZLVL AND FL200. FRZLVL 030-100. CONDS CONTG THRU 21Z. FRZLVL...RANGING FROM SFC-115 ACRS AREA MULT FRZLVL BLW 110 BOUNDED BY 50NNW ISN-60E INL-70WSW YQT- SSM-YVV-20ESE ECK-60E HLC-30NW CDS-20WSW AMA-50W LBL-50E SNY-50SSW BFF-30WNW BFF-50SE RAP-50NNW ISN SFC ALG 20S GLD-20NE GLD-30WSW LBF-40E BFF-BFF SFC ALG 60NW MOT-50E DPR-60WSW ABR-40SW BJI-40SE BRD-40SSE SAW-30SSW YVV 040 ALG 60NNE ISN-30WSW MOT-50S ANW-OBH-40SE GRB-50ENE ECK 080 ALG 50SW ICT-20SW ICT-20SE SLN-50SE OVR-40WNW PMM-40S ECK 080 ALG 20NNW BFF-40SSE RAP-50WSW DPR-60WSW DIK
WAUS44 KKCI 250845 DFWT WA 250845 AIRMET TANGO UPDT 1 FOR TURB VALID UNTIL 251500 AIRMET TURB...AR TN LA MS AL MO IL IN KY FROM 50ENE UIN TO 30NW AXC TO TTH TO 20WSW IIU TO 50SSE BNA TO 40ENE IGB TO 20NNW MCB TO 50ENE AEX TO 20NNE MEM TO 40NNW DYR TO 30N ARG TO 30SSE UIN TO 50ENE UIN MOD TURB BLW 100. CONDS CONTG BYD 15Z ENDG 15-18Z. OTLK VALID 1500-2100Z...TURB OK TX AR TN LA MS SD NE KS MN IA MO WI LM LS MI LH IL IN KY BOUNDED BY 70WNW SSM-SSM-YVV-DXO-FWA-40NNE AXC-40SE SQS-30SW MCB- 30S AEX-60SW GGG-40WSW TTT-40NW SPS-40N MMB-40ESE LBF-70SSE ABR- 60NNW RWF-70SE DLH-70WNW SSM MOD TURB BTN FL190 AND FL370. CONDS CONTG THRU 21Z.